sensor_id;sensor_type;location;lat;lon;timestamp;temperature;humidity
52859;DHT22;38721;53.098;6.596;2022-07-18T00:01:59;15.10;81.30
52859;DHT22;38721;53.098;6.596;2022-07-18T00:04:25;15.10;83.00
52859;DHT22;38721;53.098;6.596;2022-07-18T00:06:52;15.10;1.00
52859;DHT22;38721;53.098;6.596;2022-07-18T00:09:18;15.00;88.40
52859;DHT22;38721;53.098;6.596;2022-07-18T00:11:45;14.90;85.00
52859;DHT22;38721;53.098;6.596;2022-07-18T00:14:11;14.90;99.90
52859;DHT22;38721;53.098;6.596;2022-07-18T00:16:37;14.90;99.90
52859;DHT22;38721;53.098;6.596;2022-07-18T00:19:03;14.80;99.90
52859;DHT22;38721;53.098;6.596;2022-07-18T00:21:29;14.80;99.90
52859;DHT22;38721;53.098;6.596;2022-07-18T00:23:55;14.80;99.90
52859;DHT22;38721;53.098;6.596;2022-07-18T00:26:24;14.80;99.90
52859;DHT22;38721;53.098;6.596;2022-07-18T00:28:49;14.80;99.90
52859;DHT22;38721;53.098;6.596;2022-07-18T00:31:15;14.70;51.60
52859;DHT22;38721;53.098;6.596;2022-07-18T00:33:41;14.80;99.80
52859;DHT22;38721;53.098;6.596;2022-07-18T00:36:07;14.70;65.50
52859;DHT22;38721;53.098;6.596;2022-07-18T00:38:32;14.60;70.00
52859;DHT22;38721;53.098;6.596;2022-07-18T00:40:58;14.60;99.90
52859;DHT22;38721;53.098;6.596;2022-07-18T00:43:26;14.60;99.90
52859;DHT22;38721;53.098;6.596;2022-07-18T00:45:52;14.60;99.90
52859;DHT22;38721;53.098;6.596;2022-07-18T00:48:19;14.50;99.90
52859;DHT22;38721;53.098;6.596;2022-07-18T00:50:45;14.40;99.90
52859;DHT22;38721;53.098;6.596;2022-07-18T00:53:11;14.40;99.90
52859;DHT22;38721;53.098;6.596;2022-07-18T00:55:41;14.40;99.90
52859;DHT22;38721;53.098;6.596;2022-07-18T00:58:10;14.30;99.90
52859;DHT22;38721;53.098;6.596;2022-07-18T01:00:37;14.30;99.90
52859;DHT22;38721;53.098;6.596;2022-07-18T01:03:21;14.30;86.40
52859;DHT22;38721;53.098;6.596;2022-07-18T01:05:47;14.20;99.90
52859;DHT22;38721;53.098;6.596;2022-07-18T01:08:13;14.10;99.90
52859;DHT22;38721;53.098;6.596;2022-07-18T01:10:38;14.10;99.90
52859;DHT22;38721;53.098;6.596;2022-07-18T01:13:04;14.10;99.90
52859;DHT22;38721;53.098;6.596;2022-07-18T01:15:30;14.10;99.90
52859;DHT22;38721;53.098;6.596;2022-07-18T01:17:56;14.10;99.90
52859;DHT22;38721;53.098;6.596;2022-07-18T01:20:21;14.10;99.90
52859;DHT22;38721;53.098;6.596;2022-07-18T01:22:47;14.00;99.90
52859;DHT22;38721;53.098;6.596;2022-07-18T01:25:13;14.10;99.90
52859;DHT22;38721;53.098;6.596;2022-07-18T01:27:42;14.10;99.90
52859;DHT22;38721;53.098;6.596;2022-07-18T01:30:09;14.10;99.90
52859;DHT22;38721;53.098;6.596;2022-07-18T01:32:35;14.10;99.90
52859;DHT22;38721;53.098;6.596;2022-07-18T01:35:00;14.00;99.90
52859;DHT22;38721;53.098;6.596;2022-07-18T01:37:26;14.10;99.90
52859;DHT22;38721;53.098;6.596;2022-07-18T01:39:52;14.10;99.90
52859;DHT22;38721;53.098;6.596;2022-07-18T01:42:18;14.10;99.90
52859;DHT22;38721;53.098;6.596;2022-07-18T01:44:44;14.10;99.90
52859;DHT22;38721;53.098;6.596;2022-07-18T01:47:12;14.00;99.90
52859;DHT22;38721;53.098;6.596;2022-07-18T01:49:38;14.00;99.90
52859;DHT22;38721;53.098;6.596;2022-07-18T01:52:04;14.00;99.90
52859;DHT22;38721;53.098;6.596;2022-07-18T01:54:32;14.00;99.90
52859;DHT22;38721;53.098;6.596;2022-07-18T01:57:03;14.00;99.90
52859;DHT22;38721;53.098;6.596;2022-07-18T01:59:29;14.00;99.90
52859;DHT22;38721;53.098;6.596;2022-07-18T02:01:55;14.00;99.90
52859;DHT22;38721;53.098;6.596;2022-07-18T02:04:21;14.00;99.90
52859;DHT22;38721;53.098;6.596;2022-07-18T02:07:07;14.00;99.90
52859;DHT22;38721;53.098;6.596;2022-07-18T02:09:32;14.00;99.90
52859;DHT22;38721;53.098;6.596;2022-07-18T02:11:58;14.10;99.90
52859;DHT22;38721;53.098;6.596;2022-07-18T02:14:24;14.10;99.90
52859;DHT22;38721;53.098;6.596;2022-07-18T02:16:49;14.00;98.60
52859;DHT22;38721;53.098;6.596;2022-07-18T02:19:15;14.00;99.90
52859;DHT22;38721;53.098;6.596;2022-07-18T02:21:41;14.00;66.60
52859;DHT22;38721;53.098;6.596;2022-07-18T02:24:07;13.80;82.30
52859;DHT22;38721;53.098;6.596;2022-07-18T02:26:33;13.70;71.50
52859;DHT22;38721;53.098;6.596;2022-07-18T02:29:03;13.70;69.40
52859;DHT22;38721;53.098;6.596;2022-07-18T02:31:28;13.70;35.70
52859;DHT22;38721;53.098;6.596;2022-07-18T02:33:54;13.60;83.40
52859;DHT22;38721;53.098;6.596;2022-07-18T02:36:20;13.70;57.50
52859;DHT22;38721;53.098;6.596;2022-07-18T02:38:46;13.70;91.00
52859;DHT22;38721;53.098;6.596;2022-07-18T02:41:11;13.70;92.20
52859;DHT22;38721;53.098;6.596;2022-07-18T02:43:37;13.70;99.90
52859;DHT22;38721;53.098;6.596;2022-07-18T02:46:04;13.70;99.40
52859;DHT22;38721;53.098;6.596;2022-07-18T02:48:30;13.80;96.40
52859;DHT22;38721;53.098;6.596;2022-07-18T02:50:56;13.80;99.90
52859;DHT22;38721;53.098;6.596;2022-07-18T02:53:24;13.70;99.90
52859;DHT22;38721;53.098;6.596;2022-07-18T02:55:50;13.80;99.90
52859;DHT22;38721;53.098;6.596;2022-07-18T02:58:17;13.80;99.90
52859;DHT22;38721;53.098;6.596;2022-07-18T03:00:43;13.90;61.80
52859;DHT22;38721;53.098;6.596;2022-07-18T03:03:08;13.90;23.60
52859;DHT22;38721;53.098;6.596;2022-07-18T03:05:34;14.00;5.30
52859;DHT22;38721;53.098;6.596;2022-07-18T03:08:00;14.00;1.00
52859;DHT22;38721;53.098;6.596;2022-07-18T03:10:26;14.10;1.00
52859;DHT22;38721;53.098;6.596;2022-07-18T03:12:52;14.10;33.50
52859;DHT22;38721;53.098;6.596;2022-07-18T03:15:17;14.10;20.90
52859;DHT22;38721;53.098;6.596;2022-07-18T03:17:43;14.10;52.40
52859;DHT22;38721;53.098;6.596;2022-07-18T03:20:09;14.20;48.70
52859;DHT22;38721;53.098;6.596;2022-07-18T03:22:35;14.10;29.50
52859;DHT22;38721;53.098;6.596;2022-07-18T03:25:04;14.20;1.00
52859;DHT22;38721;53.098;6.596;2022-07-18T03:27:30;14.10;1.00
52859;DHT22;38721;53.098;6.596;2022-07-18T03:29:56;14.20;1.00
52859;DHT22;38721;53.098;6.596;2022-07-18T03:32:22;14.20;1.00
52859;DHT22;38721;53.098;6.596;2022-07-18T03:34:47;14.20;1.00
52859;DHT22;38721;53.098;6.596;2022-07-18T03:37:13;14.20;1.00
52859;DHT22;38721;53.098;6.596;2022-07-18T03:39:39;14.30;1.00
52859;DHT22;38721;53.098;6.596;2022-07-18T03:42:05;14.20;1.00
52859;DHT22;38721;53.098;6.596;2022-07-18T03:44:30;14.10;1.00
52859;DHT22;38721;53.098;6.596;2022-07-18T03:46:56;14.10;1.00
52859;DHT22;38721;53.098;6.596;2022-07-18T03:49:22;14.10;1.00
52859;DHT22;38721;53.098;6.596;2022-07-18T03:51:48;14.10;1.00
52859;DHT22;38721;53.098;6.596;2022-07-18T03:54:13;14.10;1.00
52859;DHT22;38721;53.098;6.596;2022-07-18T03:56:39;14.20;1.00
52859;DHT22;38721;53.098;6.596;2022-07-18T03:59:05;14.20;1.00
52859;DHT22;38721;53.098;6.596;2022-07-18T04:01:31;14.30;1.00
52859;DHT22;38721;53.098;6.596;2022-07-18T04:03:56;14.30;1.00
52859;DHT22;38721;53.098;6.596;2022-07-18T04:06:22;14.40;1.00
52859;DHT22;38721;53.098;6.596;2022-07-18T04:08:48;14.40;1.00
52859;DHT22;38721;53.098;6.596;2022-07-18T04:11:14;14.30;1.00
52859;DHT22;38721;53.098;6.596;2022-07-18T04:13:39;14.40;1.00
52859;DHT22;38721;53.098;6.596;2022-07-18T04:16:05;14.40;1.00
52859;DHT22;38721;53.098;6.596;2022-07-18T04:18:31;14.40;1.00
52859;DHT22;38721;53.098;6.596;2022-07-18T04:20:56;14.60;1.00
52859;DHT22;38721;53.098;6.596;2022-07-18T04:23:22;14.50;1.00
52859;DHT22;38721;53.098;6.596;2022-07-18T04:25:48;14.60;1.00
52859;DHT22;38721;53.098;6.596;2022-07-18T04:28:14;14.70;1.00
52859;DHT22;38721;53.098;6.596;2022-07-18T04:30:42;14.80;1.00
52859;DHT22;38721;53.098;6.596;2022-07-18T04:33:09;14.90;1.00
52859;DHT22;38721;53.098;6.596;2022-07-18T04:35:36;15.00;1.00
52859;DHT22;38721;53.098;6.596;2022-07-18T04:38:08;15.00;1.00
52859;DHT22;38721;53.098;6.596;2022-07-18T04:40:35;15.10;1.00
52859;DHT22;38721;53.098;6.596;2022-07-18T04:43:01;15.20;99.90
52859;DHT22;38721;53.098;6.596;2022-07-18T04:45:26;15.30;99.90
52859;DHT22;38721;53.098;6.596;2022-07-18T04:47:53;15.40;99.90
52859;DHT22;38721;53.098;6.596;2022-07-18T04:50:23;15.50;99.90
52859;DHT22;38721;53.098;6.596;2022-07-18T04:52:50;15.60;99.90
52859;DHT22;38721;53.098;6.596;2022-07-18T04:55:17;15.70;99.90
52859;DHT22;38721;53.098;6.596;2022-07-18T04:57:43;15.80;99.90
52859;DHT22;38721;53.098;6.596;2022-07-18T05:00:17;15.90;99.90
52859;DHT22;38721;53.098;6.596;2022-07-18T05:02:45;16.00;99.90
52859;DHT22;38721;53.098;6.596;2022-07-18T05:05:13;16.10;99.90
52859;DHT22;38721;53.098;6.596;2022-07-18T05:07:40;16.10;99.90
52859;DHT22;38721;53.098;6.596;2022-07-18T05:10:08;16.20;99.90
52859;DHT22;38721;53.098;6.596;2022-07-18T05:12:40;16.30;99.90
52859;DHT22;38721;53.098;6.596;2022-07-18T05:15:11;16.30;99.90
52859;DHT22;38721;53.098;6.596;2022-07-18T05:17:38;16.40;99.90
52859;DHT22;38721;53.098;6.596;2022-07-18T05:20:06;16.50;99.90
52859;DHT22;38721;53.098;6.596;2022-07-18T05:22:34;16.50;99.90
52859;DHT22;38721;53.098;6.596;2022-07-18T05:25:00;16.50;99.90
52859;DHT22;38721;53.098;6.596;2022-07-18T05:27:26;16.50;99.90
52859;DHT22;38721;53.098;6.596;2022-07-18T05:29:52;16.60;99.90
52859;DHT22;38721;53.098;6.596;2022-07-18T05:32:18;16.70;99.90
52859;DHT22;38721;53.098;6.596;2022-07-18T05:34:43;16.80;99.90
52859;DHT22;38721;53.098;6.596;2022-07-18T05:37:09;16.80;99.90
52859;DHT22;38721;53.098;6.596;2022-07-18T05:39:35;16.90;99.90
52859;DHT22;38721;53.098;6.596;2022-07-18T05:42:02;17.00;99.90
52859;DHT22;38721;53.098;6.596;2022-07-18T05:44:31;17.00;99.90
52859;DHT22;38721;53.098;6.596;2022-07-18T05:46:57;17.20;99.90
52859;DHT22;38721;53.098;6.596;2022-07-18T05:49:22;17.30;99.90
52859;DHT22;38721;53.098;6.596;2022-07-18T05:51:48;17.40;99.90
52859;DHT22;38721;53.098;6.596;2022-07-18T05:54:14;17.50;99.90
52859;DHT22;38721;53.098;6.596;2022-07-18T05:56:46;17.50;94.10
52859;DHT22;38721;53.098;6.596;2022-07-18T05:59:12;17.50;66.30
52859;DHT22;38721;53.098;6.596;2022-07-18T06:01:37;17.60;17.90
52859;DHT22;38721;53.098;6.596;2022-07-18T06:04:03;17.60;29.20
52859;DHT22;38721;53.098;6.596;2022-07-18T06:06:29;17.70;28.60
52859;DHT22;38721;53.098;6.596;2022-07-18T06:08:55;17.90;73.20
52859;DHT22;38721;53.098;6.596;2022-07-18T06:11:26;18.00;17.70
52859;DHT22;38721;53.098;6.596;2022-07-18T06:13:52;18.20;7.50
52859;DHT22;38721;53.098;6.596;2022-07-18T06:16:18;18.40;1.00
52859;DHT22;38721;53.098;6.596;2022-07-18T06:18:44;18.60;20.20
52859;DHT22;38721;53.098;6.596;2022-07-18T06:21:09;18.80;24.20
52859;DHT22;38721;53.098;6.596;2022-07-18T06:23:35;18.80;1.00
52859;DHT22;38721;53.098;6.596;2022-07-18T06:26:01;18.90;1.00
52859;DHT22;38721;53.098;6.596;2022-07-18T06:28:28;19.10;1.00
52859;DHT22;38721;53.098;6.596;2022-07-18T06:30:54;19.20;1.00
52859;DHT22;38721;53.098;6.596;2022-07-18T06:33:20;19.30;1.00
52859;DHT22;38721;53.098;6.596;2022-07-18T06:35:47;19.60;1.00
52859;DHT22;38721;53.098;6.596;2022-07-18T06:38:14;19.90;1.00
52859;DHT22;38721;53.098;6.596;2022-07-18T06:40:40;20.00;1.00
52859;DHT22;38721;53.098;6.596;2022-07-18T06:43:05;20.00;1.00
52859;DHT22;38721;53.098;6.596;2022-07-18T06:45:34;19.80;1.00
52859;DHT22;38721;53.098;6.596;2022-07-18T06:48:00;19.80;1.00
52859;DHT22;38721;53.098;6.596;2022-07-18T06:50:26;19.80;1.00
52859;DHT22;38721;53.098;6.596;2022-07-18T06:52:51;19.80;1.00
52859;DHT22;38721;53.098;6.596;2022-07-18T06:55:17;20.00;1.00
52859;DHT22;38721;53.098;6.596;2022-07-18T06:57:45;20.10;1.00
52859;DHT22;38721;53.098;6.596;2022-07-18T07:00:15;20.30;1.00
52859;DHT22;38721;53.098;6.596;2022-07-18T07:02:46;20.60;1.00
52859;DHT22;38721;53.098;6.596;2022-07-18T07:05:12;20.70;99.90
52859;DHT22;38721;53.098;6.596;2022-07-18T07:07:38;20.90;99.90
52859;DHT22;38721;53.098;6.596;2022-07-18T07:10:05;21.10;99.90
52859;DHT22;38721;53.098;6.596;2022-07-18T07:12:38;21.20;99.90
52859;DHT22;38721;53.098;6.596;2022-07-18T07:15:05;21.40;99.90
52859;DHT22;38721;53.098;6.596;2022-07-18T07:17:31;21.30;99.90
52859;DHT22;38721;53.098;6.596;2022-07-18T07:19:56;21.70;99.90
52859;DHT22;38721;53.098;6.596;2022-07-18T07:22:22;22.00;99.90
52859;DHT22;38721;53.098;6.596;2022-07-18T07:24:48;21.80;99.90
52859;DHT22;38721;53.098;6.596;2022-07-18T07:27:13;21.90;99.90
52859;DHT22;38721;53.098;6.596;2022-07-18T07:29:39;22.20;99.90
52859;DHT22;38721;53.098;6.596;2022-07-18T07:32:05;22.50;99.90
52859;DHT22;38721;53.098;6.596;2022-07-18T07:34:31;22.50;99.90
52859;DHT22;38721;53.098;6.596;2022-07-18T07:36:57;22.40;99.90
52859;DHT22;38721;53.098;6.596;2022-07-18T07:39:23;22.50;99.90
52859;DHT22;38721;53.098;6.596;2022-07-18T07:41:51;22.60;99.90
52859;DHT22;38721;53.098;6.596;2022-07-18T07:44:17;22.70;99.90
52859;DHT22;38721;53.098;6.596;2022-07-18T07:46:43;22.80;99.90
52859;DHT22;38721;53.098;6.596;2022-07-18T07:49:08;22.90;99.90
52859;DHT22;38721;53.098;6.596;2022-07-18T07:51:34;23.20;99.90
52859;DHT22;38721;53.098;6.596;2022-07-18T07:54:00;23.40;99.90
52859;DHT22;38721;53.098;6.596;2022-07-18T07:56:25;23.60;99.90
52859;DHT22;38721;53.098;6.596;2022-07-18T07:58:51;23.80;99.90
52859;DHT22;38721;53.098;6.596;2022-07-18T08:01:17;23.70;99.90
52859;DHT22;38721;53.098;6.596;2022-07-18T08:03:45;23.80;99.90
52859;DHT22;38721;53.098;6.596;2022-07-18T08:06:13;23.80;99.90
52859;DHT22;38721;53.098;6.596;2022-07-18T08:08:39;24.00;99.90
52859;DHT22;38721;53.098;6.596;2022-07-18T08:11:05;24.30;99.90
52859;DHT22;38721;53.098;6.596;2022-07-18T08:13:31;24.30;99.90
52859;DHT22;38721;53.098;6.596;2022-07-18T08:15:57;24.30;99.90
52859;DHT22;38721;53.098;6.596;2022-07-18T08:18:23;24.30;99.90
52859;DHT22;38721;53.098;6.596;2022-07-18T08:20:49;24.30;99.90
52859;DHT22;38721;53.098;6.596;2022-07-18T08:23:14;24.40;99.90
52859;DHT22;38721;53.098;6.596;2022-07-18T08:25:44;24.50;99.90
52859;DHT22;38721;53.098;6.596;2022-07-18T08:28:10;24.70;99.90
52859;DHT22;38721;53.098;6.596;2022-07-18T08:30:40;25.00;99.90
52859;DHT22;38721;53.098;6.596;2022-07-18T08:33:06;25.30;99.90
52859;DHT22;38721;53.098;6.596;2022-07-18T08:35:33;25.20;99.90
52859;DHT22;38721;53.098;6.596;2022-07-18T08:37:59;25.60;99.90
52859;DHT22;38721;53.098;6.596;2022-07-18T08:40:25;25.90;99.90
52859;DHT22;38721;53.098;6.596;2022-07-18T08:42:53;26.20;99.90
52859;DHT22;38721;53.098;6.596;2022-07-18T08:45:23;26.10;99.90
52859;DHT22;38721;53.098;6.596;2022-07-18T08:47:50;26.20;99.90
52859;DHT22;38721;53.098;6.596;2022-07-18T08:50:16;26.40;99.90
52859;DHT22;38721;53.098;6.596;2022-07-18T08:52:43;26.50;99.90
52859;DHT22;38721;53.098;6.596;2022-07-18T08:55:10;26.50;99.90
52859;DHT22;38721;53.098;6.596;2022-07-18T08:57:36;26.50;99.90
52859;DHT22;38721;53.098;6.596;2022-07-18T09:00:06;26.30;99.90
52859;DHT22;38721;53.098;6.596;2022-07-18T09:02:34;26.20;99.90
52859;DHT22;38721;53.098;6.596;2022-07-18T09:05:01;26.20;99.90
52859;DHT22;38721;53.098;6.596;2022-07-18T09:07:29;26.00;99.90
52859;DHT22;38721;53.098;6.596;2022-07-18T09:09:58;25.80;99.90
52859;DHT22;38721;53.098;6.596;2022-07-18T09:12:28;25.90;99.90
52859;DHT22;38721;53.098;6.596;2022-07-18T09:14:57;25.90;99.90
52859;DHT22;38721;53.098;6.596;2022-07-18T09:17:25;26.00;99.90
52859;DHT22;38721;53.098;6.596;2022-07-18T09:20:07;26.40;99.90
52859;DHT22;38721;53.098;6.596;2022-07-18T09:22:41;26.70;99.90
52859;DHT22;38721;53.098;6.596;2022-07-18T09:25:12;26.80;99.90
52859;DHT22;38721;53.098;6.596;2022-07-18T09:27:40;26.90;99.90
52859;DHT22;38721;53.098;6.596;2022-07-18T09:32:40;26.80;99.90
52859;DHT22;38721;53.098;6.596;2022-07-18T09:35:08;27.10;99.90
52859;DHT22;38721;53.098;6.596;2022-07-18T09:37:35;27.40;99.90
52859;DHT22;38721;53.098;6.596;2022-07-18T09:40:18;27.70;99.90
52859;DHT22;38721;53.098;6.596;2022-07-18T09:42:51;27.60;99.90
52859;DHT22;38721;53.098;6.596;2022-07-18T09:45:28;27.50;99.90
52859;DHT22;38721;53.098;6.596;2022-07-18T09:47:56;27.80;99.90
52859;DHT22;38721;53.098;6.596;2022-07-18T09:53:15;27.70;99.90
52859;DHT22;38721;53.098;6.596;2022-07-18T09:55:43;27.70;99.90
52859;DHT22;38721;53.098;6.596;2022-07-18T09:58:09;27.80;99.90
52859;DHT22;38721;53.098;6.596;2022-07-18T10:00:38;27.80;99.90
52859;DHT22;38721;53.098;6.596;2022-07-18T10:03:06;27.90;99.90
52859;DHT22;38721;53.098;6.596;2022-07-18T10:05:34;28.20;99.90
52859;DHT22;38721;53.098;6.596;2022-07-18T10:08:03;28.50;99.90
52859;DHT22;38721;53.098;6.596;2022-07-18T10:10:30;28.70;99.90
52859;DHT22;38721;53.098;6.596;2022-07-18T10:12:59;28.70;99.90
52859;DHT22;38721;53.098;6.596;2022-07-18T10:15:28;28.80;99.90
52859;DHT22;38721;53.098;6.596;2022-07-18T10:17:56;28.70;99.90
52859;DHT22;38721;53.098;6.596;2022-07-18T10:23:17;28.70;99.90
52859;DHT22;38721;53.098;6.596;2022-07-18T10:25:44;28.70;99.90
52859;DHT22;38721;53.098;6.596;2022-07-18T10:28:12;28.90;99.90
52859;DHT22;38721;53.098;6.596;2022-07-18T10:30:48;29.00;99.90
52859;DHT22;38721;53.098;6.596;2022-07-18T10:36:10;28.80;99.90
52859;DHT22;38721;53.098;6.596;2022-07-18T10:38:38;29.20;99.90
52859;DHT22;38721;53.098;6.596;2022-07-18T10:41:10;29.20;99.90
52859;DHT22;38721;53.098;6.596;2022-07-18T10:43:43;29.30;99.90
52859;DHT22;38721;53.098;6.596;2022-07-18T10:46:11;29.70;99.90
52859;DHT22;38721;53.098;6.596;2022-07-18T10:51:13;30.10;99.90
52859;DHT22;38721;53.098;6.596;2022-07-18T10:58:56;29.70;99.90
52859;DHT22;38721;53.098;6.596;2022-07-18T11:01:24;29.70;99.90
52859;DHT22;38721;53.098;6.596;2022-07-18T11:03:50;30.20;99.90
52859;DHT22;38721;53.098;6.596;2022-07-18T11:06:16;29.90;99.90
52859;DHT22;38721;53.098;6.596;2022-07-18T11:08:41;29.80;99.90
52859;DHT22;38721;53.098;6.596;2022-07-18T11:11:11;30.10;99.90
52859;DHT22;38721;53.098;6.596;2022-07-18T11:13:40;30.30;99.90
52859;DHT22;38721;53.098;6.596;2022-07-18T11:16:16;30.70;99.90
52859;DHT22;38721;53.098;6.596;2022-07-18T11:21:18;30.70;99.90
52859;DHT22;38721;53.098;6.596;2022-07-18T11:23:46;30.40;99.90
52859;DHT22;38721;53.098;6.596;2022-07-18T11:26:42;30.70;99.90
52859;DHT22;38721;53.098;6.596;2022-07-18T11:29:13;31.00;99.90
52859;DHT22;38721;53.098;6.596;2022-07-18T11:34:09;31.30;99.90
52859;DHT22;38721;53.098;6.596;2022-07-18T11:36:34;31.50;99.90
52859;DHT22;38721;53.098;6.596;2022-07-18T11:39:04;31.80;99.90
52859;DHT22;38721;53.098;6.596;2022-07-18T11:41:36;31.70;99.90
52859;DHT22;38721;53.098;6.596;2022-07-18T11:44:02;31.70;99.90
52859;DHT22;38721;53.098;6.596;2022-07-18T11:46:27;31.70;99.90
52859;DHT22;38721;53.098;6.596;2022-07-18T11:51:33;32.00;99.90
52859;DHT22;38721;53.098;6.596;2022-07-18T11:53:59;31.70;99.90
52859;DHT22;38721;53.098;6.596;2022-07-18T11:56:25;31.90;99.90
52859;DHT22;38721;53.098;6.596;2022-07-18T11:58:50;32.00;99.90
52859;DHT22;38721;53.098;6.596;2022-07-18T12:01:20;32.00;99.90
52859;DHT22;38721;53.098;6.596;2022-07-18T12:03:49;32.20;99.90
52859;DHT22;38721;53.098;6.596;2022-07-18T12:06:15;32.00;99.90
52859;DHT22;38721;53.098;6.596;2022-07-18T12:08:43;31.90;99.90
52859;DHT22;38721;53.098;6.596;2022-07-18T12:13:52;32.20;99.90
52859;DHT22;38721;53.098;6.596;2022-07-18T12:16:33;32.20;99.90
52859;DHT22;38721;53.098;6.596;2022-07-18T12:19:07;31.80;99.90
52859;DHT22;38721;53.098;6.596;2022-07-18T12:21:53;32.20;99.90
52859;DHT22;38721;53.098;6.596;2022-07-18T12:30:07;31.80;99.90
52859;DHT22;38721;53.098;6.596;2022-07-18T12:32:52;31.60;99.90
52859;DHT22;38721;53.098;6.596;2022-07-18T12:35:33;32.00;99.90
52859;DHT22;38721;53.098;6.596;2022-07-18T12:38:15;32.20;99.90
52859;DHT22;38721;53.098;6.596;2022-07-18T12:40:50;32.70;99.90
52859;DHT22;38721;53.098;6.596;2022-07-18T12:43:28;32.60;99.90
52859;DHT22;38721;53.098;6.596;2022-07-18T12:45:55;32.80;99.90
52859;DHT22;38721;53.098;6.596;2022-07-18T12:48:22;32.50;99.90
52859;DHT22;38721;53.098;6.596;2022-07-18T12:51:05;32.60;99.90
52859;DHT22;38721;53.098;6.596;2022-07-18T12:53:34;32.00;99.90
52859;DHT22;38721;53.098;6.596;2022-07-18T12:56:00;31.30;99.90
52859;DHT22;38721;53.098;6.596;2022-07-18T12:58:26;31.40;99.90
52859;DHT22;38721;53.098;6.596;2022-07-18T13:00:51;32.00;99.90
52859;DHT22;38721;53.098;6.596;2022-07-18T13:03:17;32.40;99.90
52859;DHT22;38721;53.098;6.596;2022-07-18T13:05:43;32.80;99.90
52859;DHT22;38721;53.098;6.596;2022-07-18T13:08:09;33.20;99.90
52859;DHT22;38721;53.098;6.596;2022-07-18T13:10:39;32.50;99.90
52859;DHT22;38721;53.098;6.596;2022-07-18T13:13:06;32.70;99.90
52859;DHT22;38721;53.098;6.596;2022-07-18T13:15:32;33.60;99.90
52859;DHT22;38721;53.098;6.596;2022-07-18T13:17:58;33.40;99.90
52859;DHT22;38721;53.098;6.596;2022-07-18T13:20:24;34.10;99.90
52859;DHT22;38721;53.098;6.596;2022-07-18T13:22:51;34.20;99.90
52859;DHT22;38721;53.098;6.596;2022-07-18T13:25:20;34.10;99.90
52859;DHT22;38721;53.098;6.596;2022-07-18T13:27:47;34.40;99.90
52859;DHT22;38721;53.098;6.596;2022-07-18T13:30:13;33.80;99.90
52859;DHT22;38721;53.098;6.596;2022-07-18T13:32:39;32.80;99.90
52859;DHT22;38721;53.098;6.596;2022-07-18T13:35:07;33.20;99.90
52859;DHT22;38721;53.098;6.596;2022-07-18T13:37:35;32.80;99.90
52859;DHT22;38721;53.098;6.596;2022-07-18T13:40:01;32.50;99.90
52859;DHT22;38721;53.098;6.596;2022-07-18T13:42:27;32.90;99.90
52859;DHT22;38721;53.098;6.596;2022-07-18T13:44:53;32.90;99.90
52859;DHT22;38721;53.098;6.596;2022-07-18T13:47:18;33.60;99.90
52859;DHT22;38721;53.098;6.596;2022-07-18T13:49:44;33.40;99.90
52859;DHT22;38721;53.098;6.596;2022-07-18T13:52:12;33.90;99.90
52859;DHT22;38721;53.098;6.596;2022-07-18T13:54:38;34.30;99.90
52859;DHT22;38721;53.098;6.596;2022-07-18T13:57:04;34.10;99.90
52859;DHT22;38721;53.098;6.596;2022-07-18T13:59:29;34.40;99.90
52859;DHT22;38721;53.098;6.596;2022-07-18T14:01:55;34.10;99.90
52859;DHT22;38721;53.098;6.596;2022-07-18T14:04:21;34.30;99.90
52859;DHT22;38721;53.098;6.596;2022-07-18T14:06:47;34.30;99.90
52859;DHT22;38721;53.098;6.596;2022-07-18T14:09:13;34.40;99.90
52859;DHT22;38721;53.098;6.596;2022-07-18T14:11:39;34.20;99.90
52859;DHT22;38721;53.098;6.596;2022-07-18T14:14:05;35.00;99.90
52859;DHT22;38721;53.098;6.596;2022-07-18T14:16:31;34.80;99.90
52859;DHT22;38721;53.098;6.596;2022-07-18T14:18:58;34.10;99.90
52859;DHT22;38721;53.098;6.596;2022-07-18T14:21:24;33.70;99.90
52859;DHT22;38721;53.098;6.596;2022-07-18T14:23:50;33.10;99.90
52859;DHT22;38721;53.098;6.596;2022-07-18T14:26:16;33.00;99.90
52859;DHT22;38721;53.098;6.596;2022-07-18T14:28:42;33.10;99.90
52859;DHT22;38721;53.098;6.596;2022-07-18T14:31:11;32.80;99.90
52859;DHT22;38721;53.098;6.596;2022-07-18T14:33:37;32.60;99.90
52859;DHT22;38721;53.098;6.596;2022-07-18T14:36:03;33.20;99.90
52859;DHT22;38721;53.098;6.596;2022-07-18T14:38:29;33.30;99.90
52859;DHT22;38721;53.098;6.596;2022-07-18T14:40:55;33.30;99.90
52859;DHT22;38721;53.098;6.596;2022-07-18T14:43:21;33.30;99.90
52859;DHT22;38721;53.098;6.596;2022-07-18T14:45:46;34.60;99.90
52859;DHT22;38721;53.098;6.596;2022-07-18T14:48:14;35.10;99.90
52859;DHT22;38721;53.098;6.596;2022-07-18T14:50:40;34.30;99.90
52859;DHT22;38721;53.098;6.596;2022-07-18T14:53:06;34.50;99.90
52859;DHT22;38721;53.098;6.596;2022-07-18T14:55:32;35.10;99.90
52859;DHT22;38721;53.098;6.596;2022-07-18T14:57:57;35.90;99.90
52859;DHT22;38721;53.098;6.596;2022-07-18T15:00:23;35.80;99.90
52859;DHT22;38721;53.098;6.596;2022-07-18T15:02:49;36.00;99.90
52859;DHT22;38721;53.098;6.596;2022-07-18T15:05:15;35.60;99.90
52859;DHT22;38721;53.098;6.596;2022-07-18T15:07:42;35.50;99.90
52859;DHT22;38721;53.098;6.596;2022-07-18T15:10:09;35.50;99.90
52859;DHT22;38721;53.098;6.596;2022-07-18T15:12:35;35.90;99.90
52859;DHT22;38721;53.098;6.596;2022-07-18T15:15:01;35.90;99.90
52859;DHT22;38721;53.098;6.596;2022-07-18T15:17:27;35.00;99.90
52859;DHT22;38721;53.098;6.596;2022-07-18T15:19:53;36.20;99.90
52859;DHT22;38721;53.098;6.596;2022-07-18T15:22:18;36.50;99.90
52859;DHT22;38721;53.098;6.596;2022-07-18T15:24:47;36.70;99.90
52859;DHT22;38721;53.098;6.596;2022-07-18T15:27:13;36.10;99.90
52859;DHT22;38721;53.098;6.596;2022-07-18T15:29:39;36.80;99.90
52859;DHT22;38721;53.098;6.596;2022-07-18T15:32:05;36.70;99.90
52859;DHT22;38721;53.098;6.596;2022-07-18T15:34:37;36.50;99.90
52859;DHT22;38721;53.098;6.596;2022-07-18T15:37:04;37.40;99.90
52859;DHT22;38721;53.098;6.596;2022-07-18T15:39:30;36.70;99.90
52859;DHT22;38721;53.098;6.596;2022-07-18T15:41:56;37.20;99.90
52859;DHT22;38721;53.098;6.596;2022-07-18T15:44:25;38.00;99.90
52859;DHT22;38721;53.098;6.596;2022-07-18T15:46:51;39.00;99.90
52859;DHT22;38721;53.098;6.596;2022-07-18T15:49:20;38.90;99.90
52859;DHT22;38721;53.098;6.596;2022-07-18T15:51:48;39.40;99.90
52859;DHT22;38721;53.098;6.596;2022-07-18T15:54:15;40.90;99.90
52859;DHT22;38721;53.098;6.596;2022-07-18T15:56:42;41.20;99.90
52859;DHT22;38721;53.098;6.596;2022-07-18T15:59:07;41.10;99.90
52859;DHT22;38721;53.098;6.596;2022-07-18T16:01:34;41.00;99.90
52859;DHT22;38721;53.098;6.596;2022-07-18T16:03:59;41.50;99.90
52859;DHT22;38721;53.098;6.596;2022-07-18T16:06:25;42.00;99.90
52859;DHT22;38721;53.098;6.596;2022-07-18T16:08:53;42.00;99.90